Time;durP1;ratioP1;P1;durP2;ratioP2;P2;SDS_P1;SDS_P2;PMS_P1;PMS_P2;Temp;Humidity;BMP_temperature;BMP_pressure;BME280_temperature;BME280_humidity;BME280_pressure;Samples;Min_cycle;Max_cycle;Signal;HPM_P1;HPM_P2
2021/12/02 00:02:07;;;;;;;9.20;6.20;;;;;;;5.39;87.71;97832.83;87253;1310;23873;-71
2021/12/02 00:04:19;;;;;;;8.00;7.10;;;;;;;5.39;87.59;97836.31;87208;1310;24372;-70
2021/12/02 00:06:28;;;;;;;10.40;5.90;;;;;;;5.40;87.67;97841.11;87219;1310;22585;-70
2021/12/02 00:08:40;;;;;;;9.50;6.40;;;;;;;5.40;87.65;97841.23;87181;1310;22816;-69
2021/12/02 00:10:52;;;;;;;6.60;5.60;;;;;;;5.41;87.48;97844.64;87161;1310;22555;-71
2021/12/02 00:13:01;;;;;;;8.90;6.00;;;;;;;5.43;87.52;97842.64;87192;1310;22567;-70
2021/12/02 00:15:20;;;;;;;8.80;5.60;;;;;;;5.45;87.67;97845.80;87209;1310;22568;-71
2021/12/02 00:17:34;;;;;;;8.30;6.10;;;;;;;5.48;87.65;97847.05;87193;1310;24319;-73
2021/12/02 00:22:12;;;;;;;8.00;5.80;;;;;;;5.49;88.01;97839.17;87221;1310;23864;-71
2021/12/02 00:24:23;;;;;;;7.40;5.80;;;;;;;5.49;87.61;97834.34;87169;1310;23877;-71
2021/12/02 00:26:36;;;;;;;5.80;5.00;;;;;;;5.50;87.73;97829.80;87215;1310;22961;-73
2021/12/02 00:28:44;;;;;;;8.60;5.30;;;;;;;5.52;87.72;97821.92;87209;1310;22559;-73
2021/12/02 00:30:57;;;;;;;6.90;4.70;;;;;;;5.53;87.66;97820.80;87177;1310;22775;-73
2021/12/02 00:33:06;;;;;;;6.90;5.30;;;;;;;5.54;87.69;97823.38;87211;1310;22552;-74
2021/12/02 00:35:16;;;;;;;6.20;4.40;;;;;;;5.54;87.62;97813.66;87211;1310;25491;-73
2021/12/02 00:37:28;;;;;;;6.50;5.10;;;;;;;5.54;87.48;97805.17;87179;1310;22857;-72
2021/12/02 00:39:36;;;;;;;6.90;4.80;;;;;;;5.53;87.56;97806.27;87169;1310;22829;-71
2021/12/02 00:41:45;;;;;;;6.90;4.70;;;;;;;5.51;87.48;97809.50;87206;1310;25491;-71
2021/12/02 00:43:55;;;;;;;5.20;4.40;;;;;;;5.50;87.60;97810.92;87183;1310;22784;-72
2021/12/02 00:46:08;;;;;;;8.30;4.30;;;;;;;5.51;87.65;97805.70;87205;1310;24292;-72
2021/12/02 00:48:17;;;;;;;6.90;4.20;;;;;;;5.52;87.49;97808.60;87214;1310;22572;-73
2021/12/02 00:50:26;;;;;;;6.20;4.20;;;;;;;5.53;87.71;97802.68;87208;1310;22680;-73
2021/12/02 00:52:35;;;;;;;5.10;4.60;;;;;;;5.54;87.47;97803.42;87199;1310;22635;-71
2021/12/02 00:54:44;;;;;;;4.90;3.90;;;;;;;5.55;87.39;97806.14;87199;1310;25344;-71
2021/12/02 00:56:53;;;;;;;9.00;4.50;;;;;;;5.56;87.56;97810.58;87226;1310;22590;-71
2021/12/02 00:59:05;;;;;;;6.30;4.00;;;;;;;5.57;87.71;97808.83;87168;1310;22562;-71
2021/12/02 01:01:14;;;;;;;6.50;4.20;;;;;;;5.59;87.57;97798.85;87195;1310;22618;-73
2021/12/02 01:03:23;;;;;;;6.10;4.10;;;;;;;5.59;87.44;97803.69;87221;1309;22555;-73
2021/12/02 01:05:32;;;;;;;5.20;4.30;;;;;;;5.61;87.19;97807.36;87220;1309;22556;-73
2021/12/02 01:07:43;;;;;;;6.10;4.40;;;;;;;5.63;87.37;97807.38;87169;1312;22719;-74
2021/12/02 01:09:53;;;;;;;7.60;5.20;;;;;;;5.66;87.32;97805.69;87145;1312;22613;-73
2021/12/02 01:12:06;;;;;;;5.00;4.10;;;;;;;5.65;87.20;97804.50;87145;1312;22762;-73
2021/12/02 01:14:15;;;;;;;6.00;4.10;;;;;;;5.65;87.07;97806.23;87173;1311;22692;-73
2021/12/02 01:16:25;;;;;;;7.20;4.80;;;;;;;5.64;87.35;97799.37;87171;1312;22682;-71
2021/12/02 01:18:34;;;;;;;3.60;3.10;;;;;;;5.65;87.03;97801.27;87116;1312;22574;-71
2021/12/02 01:20:46;;;;;;;4.80;3.70;;;;;;;5.66;87.20;97802.56;87148;1310;25625;-71
2021/12/02 01:22:58;;;;;;;4.80;3.80;;;;;;;5.67;86.88;97808.06;87168;1311;22552;-71
2021/12/02 01:25:08;;;;;;;5.10;3.60;;;;;;;5.69;86.88;97805.83;87149;1312;24319;-72
2021/12/02 01:27:21;;;;;;;5.20;3.50;;;;;;;5.71;86.82;97801.59;87185;1311;22562;-74
2021/12/02 01:29:30;;;;;;;3.80;3.20;;;;;;;5.69;86.83;97800.98;87171;1312;22611;-72
2021/12/02 01:31:39;;;;;;;6.30;3.90;;;;;;;5.67;86.52;97802.33;87151;1310;24357;-71
2021/12/02 01:33:49;;;;;;;5.80;4.10;;;;;;;5.66;86.44;97794.62;87171;1311;25464;-72
2021/12/02 01:36:00;;;;;;;5.10;3.70;;;;;;;5.67;86.69;97798.38;87174;1312;22835;-71
2021/12/02 01:38:12;;;;;;;4.20;3.10;;;;;;;5.68;86.51;97793.28;87157;1311;24340;-71
2021/12/02 01:40:21;;;;;;;3.30;2.90;;;;;;;5.67;86.25;97791.77;87131;1311;22562;-72
2021/12/02 01:42:30;;;;;;;3.60;2.80;;;;;;;5.67;86.34;97795.92;87125;1311;23862;-71
2021/12/02 01:44:44;;;;;;;3.40;2.60;;;;;;;5.68;86.46;97794.80;87127;1312;22574;-71
2021/12/02 01:46:54;;;;;;;4.60;3.90;;;;;;;5.70;86.26;97792.29;87139;1312;25356;-71
2021/12/02 01:49:04;;;;;;;3.90;3.20;;;;;;;5.69;86.16;97791.11;87132;1311;22583;-71
2021/12/02 01:51:16;;;;;;;5.60;3.30;;;;;;;5.68;86.28;97784.10;87109;1313;22596;-72
2021/12/02 01:53:26;;;;;;;3.50;2.90;;;;;;;5.65;86.16;97792.57;87101;1311;25385;-71
2021/12/02 01:55:39;;;;;;;3.50;3.00;;;;;;;5.63;85.82;97796.52;87114;1311;22525;-71
2021/12/02 01:57:58;;;;;;;3.90;2.60;;;;;;;5.61;86.05;97794.76;87163;1311;22558;-72
2021/12/02 02:00:15;;;;;;;5.10;3.20;;;;;;;5.59;86.02;97791.36;87147;1312;22574;-71
2021/12/02 02:02:24;;;;;;;8.00;3.00;;;;;;;5.59;85.66;97788.62;87144;1312;25453;-72
2021/12/02 02:04:35;;;;;;;4.50;3.20;;;;;;;5.59;85.89;97790.73;87141;1311;22630;-71
2021/12/02 02:06:53;;;;;;;3.70;3.10;;;;;;;5.57;85.95;97791.87;87124;1311;24292;-72
2021/12/02 02:09:05;;;;;;;4.60;2.80;;;;;;;5.56;85.74;97787.91;87106;1311;23837;-71
2021/12/02 02:11:14;;;;;;;5.70;3.30;;;;;;;5.58;85.85;97788.36;87147;1312;22676;-73
2021/12/02 02:13:23;;;;;;;4.30;2.70;;;;;;;5.62;85.79;97791.91;87126;1311;22569;-73
2021/12/02 02:15:32;;;;;;;3.90;2.50;;;;;;;5.66;85.69;97791.34;87131;1312;22574;-74
2021/12/02 02:17:48;;;;;;;5.40;2.70;;;;;;;5.71;85.51;97790.02;87128;1311;23801;-71
2021/12/02 02:20:00;;;;;;;4.30;3.10;;;;;;;5.73;85.43;97788.98;87152;1311;22558;-72
2021/12/02 02:22:09;;;;;;;3.00;2.80;;;;;;;5.76;85.35;97793.85;87157;1311;24497;-73
2021/12/02 02:24:20;;;;;;;5.20;3.40;;;;;;;5.74;84.97;97800.20;87137;1312;22579;-73
2021/12/02 02:26:33;;;;;;;3.70;3.10;;;;;;;5.71;85.07;97801.61;87133;1311;22574;-73
2021/12/02 02:28:42;;;;;;;3.70;2.70;;;;;;;5.67;84.54;97802.30;87153;1311;22602;-74
2021/12/02 02:30:51;;;;;;;3.60;2.90;;;;;;;5.64;84.55;97799.23;87138;1311;22772;-72
2021/12/02 02:33:03;;;;;;;3.90;3.00;;;;;;;5.60;84.78;97798.94;87140;1311;22829;-73
2021/12/02 02:35:12;;;;;;;3.50;2.50;;;;;;;5.56;84.54;97804.87;87129;1312;22543;-73
2021/12/02 02:37:20;;;;;;;3.50;2.90;;;;;;;5.53;84.69;97794.20;87164;1311;22864;-73
2021/12/02 02:39:30;;;;;;;6.70;3.20;;;;;;;5.51;84.72;97797.58;87131;1311;22678;-73
2021/12/02 02:41:45;;;;;;;4.90;2.80;;;;;;;5.49;84.62;97792.00;87153;1310;25365;-71
2021/12/02 02:43:56;;;;;;;3.70;2.80;;;;;;;5.48;84.67;97785.66;87182;1310;22560;-71
2021/12/02 02:46:05;;;;;;;4.00;2.70;;;;;;;5.49;84.97;97782.84;87222;1310;22571;-73
2021/12/02 02:48:14;;;;;;;4.40;3.00;;;;;;;5.50;84.67;97778.95;87165;1311;25586;-73
2021/12/02 02:50:25;;;;;;;4.20;3.40;;;;;;;5.50;84.67;97774.45;87179;1311;22685;-72
2021/12/02 02:52:35;;;;;;;4.30;3.40;;;;;;;5.50;84.79;97773.05;87182;1312;22566;-72
2021/12/02 02:54:44;;;;;;;4.40;2.70;;;;;;;5.50;84.33;97775.13;87176;1312;22574;-71
2021/12/02 02:57:03;;;;;;;4.90;3.00;;;;;;;5.51;84.53;97767.48;87185;1311;22749;-71
2021/12/02 02:59:18;;;;;;;3.80;2.60;;;;;;;5.52;84.42;97769.00;87181;1312;22697;-72
2021/12/02 03:01:43;;;;;;;4.20;2.60;;;;;;;5.51;84.17;97759.20;87193;1312;24322;-73
2021/12/02 03:04:01;;;;;;;4.00;3.00;;;;;;;5.44;84.06;97760.45;87143;1311;25310;-73
2021/12/02 03:06:28;;;;;;;5.00;3.00;;;;;;;5.37;84.04;97759.48;87185;1312;22728;-71
2021/12/02 03:08:41;;;;;;;4.70;2.20;;;;;;;5.31;84.32;97754.63;87185;1312;26500;-71
2021/12/02 03:10:55;;;;;;;3.70;2.30;;;;;;;5.28;84.07;97757.58;87171;1312;22571;-73
2021/12/02 03:13:13;;;;;;;3.90;2.80;;;;;;;5.28;84.13;97758.97;87147;1312;24289;-74
2021/12/02 03:17:51;;;;;;;3.30;2.90;;;;;;;5.35;84.49;97761.02;87164;1311;22606;-73
2021/12/02 03:20:00;;;;;;;2.90;2.50;;;;;;;5.36;84.28;97755.58;87167;1312;23821;-73
2021/12/02 03:22:09;;;;;;;3.90;3.10;;;;;;;5.37;84.17;97750.69;87173;1311;24401;-72
2021/12/02 03:24:18;;;;;;;5.10;2.90;;;;;;;5.38;84.11;97753.58;87171;1311;23862;-71
2021/12/02 03:26:30;;;;;;;5.70;2.40;;;;;;;5.38;83.95;97755.45;87206;1312;26528;-73
2021/12/02 03:28:39;;;;;;;3.50;2.80;;;;;;;5.38;84.08;97756.14;87158;1311;22552;-73
2021/12/02 03:30:47;;;;;;;2.80;2.50;;;;;;;5.37;83.78;97759.86;87133;1312;22552;-72
2021/12/02 03:32:56;;;;;;;2.90;2.40;;;;;;;5.35;83.66;97756.32;87164;1312;22616;-73
2021/12/02 03:35:06;;;;;;;4.70;3.00;;;;;;;5.32;83.82;97754.95;87117;1312;24430;-73
2021/12/02 03:37:18;;;;;;;3.40;2.80;;;;;;;5.29;83.67;97754.27;87158;1311;22766;-72
2021/12/02 03:39:26;;;;;;;2.60;2.30;;;;;;;5.26;83.82;97751.17;87164;1312;23825;-72
2021/12/02 03:41:39;;;;;;;3.20;2.50;;;;;;;5.24;84.03;97747.80;87166;1312;22683;-72
2021/12/02 03:43:48;;;;;;;4.60;3.00;;;;;;;5.25;83.92;97744.98;87152;1312;22765;-72
2021/12/02 03:45:57;;;;;;;2.50;2.20;;;;;;;5.23;83.71;97744.23;87179;1312;22695;-71
2021/12/02 03:48:09;;;;;;;3.20;2.10;;;;;;;5.23;83.83;97747.05;87164;1312;22590;-71
2021/12/02 03:50:21;;;;;;;2.70;2.00;;;;;;;5.20;83.37;97747.16;86433;1312;1002991;-70
2021/12/02 03:52:30;;;;;;;3.00;1.90;;;;;;;5.17;83.53;97745.59;87171;1312;23809;-71
2021/12/02 03:54:41;;;;;;;2.70;2.40;;;;;;;5.16;83.72;97744.27;87162;1311;22688;-70
2021/12/02 03:56:50;;;;;;;4.90;2.70;;;;;;;5.19;83.64;97746.73;87209;1311;22571;-71
2021/12/02 03:59:02;;;;;;;4.20;2.20;;;;;;;5.21;83.77;97749.18;87178;1312;23826;-71
2021/12/02 04:01:11;;;;;;;6.30;2.60;;;;;;;5.22;83.31;97755.71;87191;1312;22704;-72
2021/12/02 04:03:22;;;;;;;3.10;1.90;;;;;;;5.22;83.34;97752.28;87146;1312;22870;-72
2021/12/02 04:05:31;;;;;;;4.00;3.00;;;;;;;5.21;83.23;97754.02;87166;1312;22663;-72
2021/12/02 04:07:43;;;;;;;5.60;2.30;;;;;;;5.23;83.10;97753.93;87169;1312;22743;-72
2021/12/02 04:09:52;;;;;;;2.70;2.40;;;;;;;5.24;83.01;97755.27;87165;1311;22552;-71
2021/12/02 04:12:08;;;;;;;2.90;1.90;;;;;;;5.23;83.11;97762.09;87189;1312;23852;-73
2021/12/02 04:14:22;;;;;;;3.10;1.90;;;;;;;5.23;82.95;97761.38;87146;1312;22550;-74
2021/12/02 04:16:35;;;;;;;4.00;2.20;;;;;;;5.24;82.66;97761.68;87147;1311;25324;-71
2021/12/02 04:18:44;;;;;;;2.30;1.90;;;;;;;5.25;82.63;97758.27;87165;1311;23800;-71
2021/12/02 04:20:56;;;;;;;3.30;2.00;;;;;;;5.28;82.67;97762.48;87175;1312;24331;-71
2021/12/02 04:23:08;;;;;;;2.10;1.50;;;;;;;5.31;82.13;97761.38;87159;1311;22574;-72
2021/12/02 04:25:20;;;;;;;1.90;1.70;;;;;;;5.34;82.30;97761.56;87140;1312;23821;-73
2021/12/02 04:27:29;;;;;;;3.60;2.10;;;;;;;5.33;81.92;97757.14;87175;1312;22572;-72
2021/12/02 04:29:38;;;;;;;2.40;1.70;;;;;;;5.31;81.61;97760.89;87148;1311;22545;-71
2021/12/02 04:31:47;;;;;;;2.40;1.40;;;;;;;5.28;81.41;97764.85;87178;1312;22744;-73
2021/12/02 04:33:56;;;;;;;3.20;1.80;;;;;;;5.25;81.21;97768.86;87183;1312;22548;-73
2021/12/02 04:36:08;;;;;;;4.10;1.90;;;;;;;5.20;81.21;97769.66;87150;1311;25572;-73
2021/12/02 04:38:20;;;;;;;2.30;1.30;;;;;;;5.14;80.87;97780.73;87109;1312;23824;-73
2021/12/02 04:40:32;;;;;;;2.30;1.40;;;;;;;5.08;80.99;97776.70;87068;1313;22737;-73
2021/12/02 04:42:40;;;;;;;2.80;1.20;;;;;;;5.06;80.61;97784.63;87096;1313;25348;-72
2021/12/02 04:44:49;;;;;;;1.40;1.20;;;;;;;5.06;80.28;97787.40;87111;1313;22572;-72
2021/12/02 04:46:58;;;;;;;3.30;1.30;;;;;;;5.07;80.45;97794.91;87058;1312;22697;-72
2021/12/02 04:49:09;;;;;;;2.60;1.40;;;;;;;5.07;79.99;97797.33;87083;1306;22579;-72
2021/12/02 04:51:22;;;;;;;1.90;1.10;;;;;;;5.08;80.70;97801.95;87117;1313;23826;-72
2021/12/02 04:53:31;;;;;;;1.20;0.90;;;;;;;5.10;80.76;97807.20;87104;1313;22564;-71
2021/12/02 04:55:42;;;;;;;1.10;1.00;;;;;;;5.09;80.09;97807.08;87101;1313;24433;-73
2021/12/02 04:57:51;;;;;;;1.50;1.10;;;;;;;5.10;80.26;97806.19;86392;1313;1003029;-73
2021/12/02 05:00:00;;;;;;;2.00;1.00;;;;;;;5.13;80.31;97812.41;87093;1313;22675;-74
2021/12/02 05:02:09;;;;;;;1.40;1.00;;;;;;;5.15;80.41;97811.73;87094;1313;25319;-74
2021/12/02 05:04:21;;;;;;;1.30;1.00;;;;;;;5.18;79.95;97811.77;87099;1313;22769;-73
2021/12/02 05:06:30;;;;;;;2.10;1.20;;;;;;;5.20;80.17;97814.06;87102;1313;22635;-73
2021/12/02 05:08:39;;;;;;;1.80;1.40;;;;;;;5.21;80.11;97811.39;87106;1313;22549;-73
2021/12/02 05:10:51;;;;;;;1.60;1.50;;;;;;;5.23;79.63;97810.61;87103;1313;22816;-71
2021/12/02 05:13:00;;;;;;;2.90;1.30;;;;;;;5.25;79.44;97819.84;87090;1313;22571;-70
2021/12/02 05:15:13;;;;;;;1.60;1.20;;;;;;;5.26;79.38;97819.58;87113;1313;25330;-70
2021/12/02 05:17:22;;;;;;;2.80;1.10;;;;;;;5.26;79.26;97822.17;87100;1313;25454;-71
2021/12/02 05:19:31;;;;;;;4.40;1.30;;;;;;;5.28;79.35;97824.49;87085;1313;23644;-71
2021/12/02 05:21:40;;;;;;;0.90;0.80;;;;;;;5.31;79.23;97832.60;87076;1313;25361;-74
2021/12/02 05:23:53;;;;;;;6.30;1.20;;;;;;;5.36;79.07;97838.23;87096;1313;22571;-74
2021/12/02 05:26:02;;;;;;;2.00;1.30;;;;;;;5.40;78.85;97845.60;87070;1313;22757;-76
2021/12/02 05:28:12;;;;;;;2.20;1.30;;;;;;;5.44;79.04;97853.29;87107;1313;24312;-76
2021/12/02 05:30:21;;;;;;;1.70;1.50;;;;;;;5.47;78.75;97864.05;87081;1313;22522;-75
2021/12/02 05:32:32;;;;;;;2.00;1.00;;;;;;;5.48;78.16;97855.86;87133;1312;22686;-74
2021/12/02 05:34:46;;;;;;;1.20;0.70;;;;;;;5.48;77.08;97867.80;87087;1313;24224;-74
2021/12/02 05:36:56;;;;;;;1.90;0.90;;;;;;;5.45;76.76;97877.96;87138;1310;25354;-75
2021/12/02 05:39:05;;;;;;;2.20;0.80;;;;;;;5.43;76.43;97877.36;87095;1312;23837;-74
2021/12/02 05:41:15;;;;;;;3.80;1.10;;;;;;;5.40;75.86;97878.42;87184;1311;23705;-74
2021/12/02 05:43:27;;;;;;;1.20;0.50;;;;;;;5.37;74.86;97883.45;87170;1310;25474;-75
2021/12/02 05:45:36;;;;;;;1.10;0.60;;;;;;;5.33;74.08;97885.05;87151;1310;23810;-73
2021/12/02 05:47:45;;;;;;;0.70;0.50;;;;;;;5.29;73.77;97895.48;84912;1310;3061276;-74
2021/12/02 05:49:54;;;;;;;1.00;0.80;;;;;;;5.26;73.55;97906.37;87162;1310;23767;-74
2021/12/02 05:52:03;;;;;;;3.10;0.80;;;;;;;5.23;73.71;97908.45;87145;1310;22574;-71
2021/12/02 05:54:11;;;;;;;0.90;0.50;;;;;;;5.19;73.84;97916.92;87174;1310;24285;-71
2021/12/02 05:56:25;;;;;;;3.70;0.70;;;;;;;5.16;73.67;97923.14;87146;1311;22560;-72
2021/12/02 05:58:34;;;;;;;2.20;0.60;;;;;;;5.14;73.28;97922.22;87161;1310;22721;-73
2021/12/02 06:00:43;;;;;;;1.80;0.60;;;;;;;5.14;73.20;97920.54;87134;1310;22580;-73
2021/12/02 06:02:52;;;;;;;2.10;0.70;;;;;;;5.12;72.37;97924.04;87154;1310;22545;-72
2021/12/02 06:05:01;;;;;;;2.50;0.60;;;;;;;5.10;72.39;97927.45;87158;1310;22572;-72
2021/12/02 06:07:09;;;;;;;4.00;0.90;;;;;;;5.04;71.86;97924.34;87174;1310;22721;-73
2021/12/02 06:09:22;;;;;;;3.10;0.80;;;;;;;4.98;71.99;97926.05;87141;1310;23820;-74
2021/12/02 06:11:34;;;;;;;1.00;0.60;;;;;;;4.92;71.47;97930.17;87182;1310;22601;-73
2021/12/02 06:13:45;;;;;;;3.10;0.80;;;;;;;4.85;71.84;97937.61;87165;1310;22549;-73
2021/12/02 06:15:55;;;;;;;2.40;0.80;;;;;;;4.80;71.73;97932.20;87195;1311;22503;-70
2021/12/02 06:18:03;;;;;;;1.70;0.70;;;;;;;4.75;71.72;97932.66;87172;1310;22592;-70
2021/12/02 06:20:14;;;;;;;1.80;0.80;;;;;;;4.69;71.06;97935.90;87155;1310;22725;-70
2021/12/02 06:22:23;;;;;;;2.40;0.90;;;;;;;4.63;70.87;97933.45;87160;1310;22626;-70
2021/12/02 06:24:43;;;;;;;3.60;0.80;;;;;;;4.58;71.07;97933.86;87169;1310;22558;-71
2021/12/02 06:26:52;;;;;;;2.10;0.80;;;;;;;4.55;70.74;97944.57;87149;1311;23823;-72
2021/12/02 06:29:01;;;;;;;2.60;0.80;;;;;;;4.55;71.02;97943.56;87138;1310;25347;-71
2021/12/02 06:31:10;;;;;;;1.10;0.90;;;;;;;4.54;70.86;97948.27;87175;1310;22583;-72
2021/12/02 06:33:19;;;;;;;3.90;0.70;;;;;;;4.52;70.05;97941.48;87149;1310;22567;-73
2021/12/02 06:35:29;;;;;;;3.80;1.00;;;;;;;4.50;70.77;97943.45;87148;1312;25457;-72
2021/12/02 06:37:38;;;;;;;1.30;0.80;;;;;;;4.48;70.88;97946.86;87179;1310;22558;-71
2021/12/02 06:39:47;;;;;;;1.30;0.70;;;;;;;4.46;70.60;97952.17;87155;1310;23759;-72
2021/12/02 06:41:58;;;;;;;3.90;0.70;;;;;;;4.45;70.55;97952.38;87200;1310;23254;-73
2021/12/02 06:44:08;;;;;;;1.60;1.00;;;;;;;4.42;69.98;97950.60;87197;1310;22815;-72
2021/12/02 06:46:17;;;;;;;1.90;0.70;;;;;;;4.41;69.78;97960.48;87158;1310;22697;-72
2021/12/02 06:48:26;;;;;;;6.00;0.90;;;;;;;4.40;69.78;97962.82;87167;1310;23846;-72
2021/12/02 06:50:37;;;;;;;1.60;1.20;;;;;;;4.37;70.37;97965.36;87170;1310;22569;-73
2021/12/02 06:52:46;;;;;;;2.70;1.20;;;;;;;4.34;70.27;97966.89;87198;1310;23956;-73
2021/12/02 06:54:55;;;;;;;2.70;0.70;;;;;;;4.32;70.61;97973.77;87142;1310;22569;-72
2021/12/02 06:57:04;;;;;;;1.30;0.60;;;;;;;4.26;70.71;97973.52;87185;1310;24245;-72
2021/12/02 06:59:12;;;;;;;2.40;1.00;;;;;;;4.22;71.04;97977.39;87159;1310;22576;-73
2021/12/02 07:01:21;;;;;;;7.50;1.70;;;;;;;4.17;70.88;97974.17;87185;1310;22556;-71
2021/12/02 07:03:30;;;;;;;2.50;1.10;;;;;;;4.13;71.12;97973.15;87145;1310;22742;-70
2021/12/02 07:05:38;;;;;;;5.70;1.10;;;;;;;4.10;71.27;97973.30;87159;1311;22576;-70
2021/12/02 07:07:50;;;;;;;2.40;0.90;;;;;;;4.07;71.81;97974.80;87151;1310;22555;-71
2021/12/02 07:09:59;;;;;;;1.30;1.20;;;;;;;4.09;71.61;97977.84;87162;1310;22581;-71
2021/12/02 07:12:12;;;;;;;2.60;1.00;;;;;;;4.13;71.67;97985.04;87159;1312;22772;-70
2021/12/02 07:14:22;;;;;;;1.10;0.80;;;;;;;4.19;71.59;97984.77;87168;1310;22560;-68
2021/12/02 07:16:35;;;;;;;2.90;0.90;;;;;;;4.25;71.28;97988.92;87171;1310;22571;-73
2021/12/02 07:18:47;;;;;;;36.90;20.60;;;;;;;4.35;71.45;97986.73;87191;1312;22611;-73
2021/12/02 07:20:56;;;;;;;16.50;12.10;;;;;;;4.57;71.89;97986.74;87182;1312;22548;-73
2021/12/02 07:23:05;;;;;;;2.30;1.50;;;;;;;4.90;72.30;97989.52;87176;1312;22764;-73
2021/12/02 07:25:14;;;;;;;4.30;1.80;;;;;;;5.18;71.95;97986.16;87184;1311;22588;-74
2021/12/02 07:27:23;;;;;;;2.50;1.10;;;;;;;5.50;71.31;97989.93;87183;1311;24258;-73
2021/12/02 07:29:32;;;;;;;1.60;1.00;;;;;;;6.16;70.49;97988.23;87139;1310;22881;-74
2021/12/02 07:31:41;;;;;;;1.20;0.80;;;;;;;6.88;69.81;97987.23;87178;1311;23946;-73
2021/12/02 07:33:50;;;;;;;2.40;1.00;;;;;;;7.41;68.34;97987.42;87157;1311;22687;-73
2021/12/02 07:36:05;;;;;;;1.20;0.80;;;;;;;7.68;67.50;97987.45;87209;1310;22870;-71
2021/12/02 07:38:14;;;;;;;2.40;1.20;;;;;;;7.83;65.76;97985.48;87153;1311;22574;-71
2021/12/02 07:40:23;;;;;;;3.60;1.00;;;;;;;7.92;64.07;97984.47;87199;1311;22836;-70
2021/12/02 07:42:35;;;;;;;1.20;0.90;;;;;;;7.88;64.18;97984.59;87170;1311;22553;-73
2021/12/02 07:44:44;;;;;;;1.00;0.70;;;;;;;7.77;63.44;97993.46;87157;1311;22571;-71
2021/12/02 07:46:55;;;;;;;1.80;0.90;;;;;;;7.61;63.13;97993.13;87135;1310;22774;-71
2021/12/02 07:49:07;;;;;;;3.60;1.00;;;;;;;7.39;61.56;97993.29;87169;1310;25323;-70
2021/12/02 07:51:17;;;;;;;10.50;1.40;;;;;;;7.17;61.94;97997.80;87133;1311;25451;-70
2021/12/02 07:53:26;;;;;;;4.70;1.10;;;;;;;6.99;62.48;98000.63;87166;1312;22568;-72
2021/12/02 07:55:38;;;;;;;3.10;1.00;;;;;;;6.84;62.28;97998.96;87155;1312;24372;-71
2021/12/02 07:57:47;;;;;;;2.00;1.20;;;;;;;6.70;62.79;98007.92;87181;1312;22567;-72
2021/12/02 07:59:56;;;;;;;5.80;1.30;;;;;;;6.59;62.86;98011.57;87159;1312;22634;-72
2021/12/02 08:02:08;;;;;;;2.50;0.90;;;;;;;6.47;62.69;98017.98;87196;1312;22514;-72
2021/12/02 08:04:17;;;;;;;3.30;1.30;;;;;;;6.30;63.02;98011.49;87157;1312;22568;-74
2021/12/02 08:06:26;;;;;;;5.70;1.00;;;;;;;6.17;63.37;98022.80;87181;1310;22697;-73
2021/12/02 08:08:37;;;;;;;2.60;0.80;;;;;;;6.06;63.66;98020.87;87157;1311;22555;-71
2021/12/02 08:10:46;;;;;;;2.70;0.90;;;;;;;5.98;63.76;98019.09;87178;1311;22870;-72
2021/12/02 08:12:59;;;;;;;2.50;1.10;;;;;;;5.90;63.75;98023.64;87187;1310;22787;-71
2021/12/02 08:15:11;;;;;;;4.00;1.60;;;;;;;5.85;63.97;98026.38;87159;1310;22555;-71
2021/12/02 08:17:20;;;;;;;2.70;1.60;;;;;;;5.79;63.67;98029.81;87211;1311;25468;-73
2021/12/02 08:19:29;;;;;;;3.40;1.00;;;;;;;5.74;63.51;98026.96;87178;1312;22587;-73
2021/12/02 08:21:37;;;;;;;4.50;1.30;;;;;;;5.73;63.37;98031.56;87181;1311;24325;-71
2021/12/02 08:23:46;;;;;;;1.90;1.00;;;;;;;5.78;64.21;98038.88;87147;1310;22575;-73
2021/12/02 08:25:58;;;;;;;2.70;0.90;;;;;;;5.86;64.30;98042.23;87153;1310;22668;-73
2021/12/02 08:28:10;;;;;;;3.70;1.30;;;;;;;5.99;64.12;98043.27;87173;1310;24067;-73
2021/12/02 08:30:25;;;;;;;2.90;0.90;;;;;;;6.15;63.94;98049.73;87178;1311;24375;-72
2021/12/02 08:32:40;;;;;;;3.70;1.60;;;;;;;6.27;63.77;98052.75;87159;1310;22599;-73
2021/12/02 08:34:53;;;;;;;2.80;1.30;;;;;;;6.29;63.32;98051.75;87162;1312;22680;-73
2021/12/02 08:37:06;;;;;;;4.10;1.40;;;;;;;6.29;62.90;98057.13;87140;1311;22685;-73
2021/12/02 08:39:22;;;;;;;3.50;1.40;;;;;;;6.27;63.72;98058.13;87161;1312;22555;-73
2021/12/02 08:41:32;;;;;;;3.80;0.90;;;;;;;6.22;62.65;98058.05;87133;1310;22869;-70
2021/12/02 08:43:43;;;;;;;2.00;1.20;;;;;;;6.19;62.94;98059.57;87201;1311;22585;-71
2021/12/02 08:45:52;;;;;;;3.90;1.40;;;;;;;6.21;63.11;98071.77;87163;1311;24410;-70
2021/12/02 08:48:01;;;;;;;3.50;1.50;;;;;;;6.40;63.37;98078.30;87148;1311;22570;-68
2021/12/02 08:50:11;;;;;;;3.20;1.60;;;;;;;6.71;63.13;98078.73;87173;1310;24366;-71
2021/12/02 08:52:18;;;;;;;;;;;;;;;7.09;62.23;98077.89;87181;1310;22530;-72
2021/12/02 08:54:30;;;;;;;2.50;0.70;;;;;;;7.40;59.37;98075.81;87161;1310;24268;-72
2021/12/02 08:56:39;;;;;;;2.20;1.10;;;;;;;7.81;59.85;98070.42;87207;1310;22781;-70
2021/12/02 08:58:48;;;;;;;2.40;1.00;;;;;;;8.20;59.17;98072.95;87176;1310;22563;-71
2021/12/02 09:00:57;;;;;;;3.30;1.10;;;;;;;8.52;57.22;98072.13;87149;1310;22584;-70
2021/12/02 09:03:06;;;;;;;1.90;1.20;;;;;;;8.69;57.11;98076.02;87145;1310;22555;-71
2021/12/02 09:05:16;;;;;;;2.40;1.60;;;;;;;8.93;57.47;98077.36;87155;1310;22569;-70
2021/12/02 09:07:28;;;;;;;4.00;1.20;;;;;;;9.13;56.48;98073.89;87141;1311;22693;-72
2021/12/02 09:09:40;;;;;;;3.50;1.40;;;;;;;9.27;57.34;98081.97;87137;1310;22759;-73
2021/12/02 09:11:49;;;;;;;2.00;1.10;;;;;;;9.47;55.45;98079.52;87158;1310;25343;-71
2021/12/02 09:16:18;;;;;;;1.70;1.00;;;;;;;10.10;55.36;98076.40;84228;1354;545665;-72
2021/12/02 09:18:28;;;;;;;3.50;1.40;;;;;;;10.43;53.50;98076.67;86603;1321;25341;-73
2021/12/02 09:20:35;;;;;;;3.00;1.10;;;;;;;10.73;52.68;98077.52;86597;1321;26655;-73
2021/12/02 09:22:46;;;;;;;1.60;1.10;;;;;;;11.03;52.03;98078.73;86622;1321;22560;-72
2021/12/02 09:24:53;;;;;;;0.70;0.70;;;;;;;11.34;50.98;98076.70;86606;1320;22636;-71
2021/12/02 09:26:59;;;;;;;2.40;0.80;;;;;;;11.59;50.93;98083.10;86614;1320;22833;-71
2021/12/02 09:29:07;;;;;;;3.20;1.10;;;;;;;11.86;49.20;98074.36;86587;1320;24381;-72
2021/12/02 09:31:13;;;;;;;4.70;1.00;;;;;;;12.05;47.02;98081.96;86582;1318;24562;-72
2021/12/02 09:33:23;;;;;;;2.10;1.10;;;;;;;12.22;47.82;98077.48;86755;1317;22962;-71
2021/12/02 09:35:30;;;;;;;1.70;0.80;;;;;;;12.43;46.57;98082.74;86766;1318;24300;-71
2021/12/02 09:37:37;;;;;;;1.70;0.90;;;;;;;12.57;47.53;98076.50;86750;1318;25702;-71
2021/12/02 09:39:44;;;;;;;5.80;1.40;;;;;;;12.71;44.34;98079.14;86780;1317;22591;-72
2021/12/02 09:41:51;;;;;;;1.90;0.90;;;;;;;12.71;44.49;98082.31;86970;1315;25603;-72
2021/12/02 09:43:58;;;;;;;3.60;0.90;;;;;;;12.69;44.20;98071.65;86965;1315;25487;-72
2021/12/02 09:46:08;;;;;;;1.60;1.10;;;;;;;12.53;44.83;98079.06;86986;1315;22578;-72
2021/12/02 09:48:15;;;;;;;1.20;1.00;;;;;;;12.38;46.05;98091.20;86978;1315;22637;-72
2021/12/02 09:50:26;;;;;;;3.30;1.30;;;;;;;12.24;45.48;98090.17;86952;1315;22931;-73
2021/12/02 09:52:36;;;;;;;1.90;0.90;;;;;;;12.09;46.07;98096.83;86993;1314;22745;-72
2021/12/02 09:54:53;;;;;;;2.40;0.70;;;;;;;12.08;45.99;98092.16;86974;1315;22629;-70
2021/12/02 09:57:03;;;;;;;2.30;1.50;;;;;;;12.16;46.30;98094.01;86967;1314;22555;-72
2021/12/02 09:59:13;;;;;;;5.50;1.50;;;;;;;12.12;45.25;98089.21;86975;1315;22572;-73
2021/12/02 10:01:26;;;;;;;1.80;0.70;;;;;;;12.06;45.44;98080.11;86963;1315;22573;-73
2021/12/02 10:03:35;;;;;;;2.50;1.20;;;;;;;11.94;45.34;98085.86;86972;1313;22571;-73
2021/12/02 10:05:51;;;;;;;1.50;0.90;;;;;;;11.80;45.17;98083.41;86975;1315;22575;-72
2021/12/02 10:08:02;;;;;;;1.70;1.00;;;;;;;11.70;45.72;98089.41;86994;1315;22569;-73
2021/12/02 10:10:13;;;;;;;2.30;1.10;;;;;;;11.74;45.12;98084.63;86967;1315;22639;-73
2021/12/02 10:12:22;;;;;;;7.50;1.50;;;;;;;11.80;44.63;98081.16;86956;1315;22555;-70
2021/12/02 10:14:33;;;;;;;1.20;0.70;;;;;;;11.69;44.73;98086.38;86953;1315;22563;-72
2021/12/02 10:16:43;;;;;;;2.90;1.50;;;;;;;11.36;45.30;98084.45;86966;1315;22568;-70
2021/12/02 10:18:56;;;;;;;2.00;1.00;;;;;;;10.98;45.27;98090.65;86970;1315;22555;-71
2021/12/02 10:21:19;;;;;;;2.50;1.10;;;;;;;10.61;46.37;98095.17;86979;1314;23872;-70
2021/12/02 10:23:29;;;;;;;3.60;1.40;;;;;;;10.29;47.42;98101.56;86993;1315;22672;-70
2021/12/02 10:25:36;;;;;;;4.40;1.40;;;;;;;10.06;47.04;98101.85;86959;1314;26516;-71
2021/12/02 10:28:02;;;;;;;2.80;1.50;;;;;;;9.77;47.92;98108.06;86983;1315;24392;-73
2021/12/02 10:30:24;;;;;;;1.90;1.00;;;;;;;9.53;48.25;98114.13;86957;1315;22767;-72